| time (UTC) | temp F | wind direction | speed MPH | gust MPH | rain 1hr in | rain 24hr in | rain mn in | humidity % | barometer mb |
| 20260507222904 | 33 | 76 | 1.0 | 2.0 | 0.00 | 0.00 | 0.00 | 74 | 1020.6 |
| 20260507221903 | 33 | 76 | 1.0 | 3.0 | 0.00 | 0.00 | 0.00 | 74 | 1020.5 |
| 20260507221403 | 33 | 76 | 1.0 | 2.0 | 0.00 | 0.00 | 0.00 | 73 | 1020.4 |
| 20260507220904 | 33 | 76 | 2.0 | 3.0 | 0.00 | 0.00 | 0.00 | 73 | 1020.4 |
| 20260507220404 | 34 | 76 | 1.0 | 3.0 | 0.00 | 0.00 | 0.00 | 73 | 1020.4 |
| 20260507215404 | 34 | 58 | 1.0 | 2.0 | 0.00 | 0.00 | 0.00 | 74 | 1020.4 |
| 20260507214404 | 34 | 44 | 1.0 | 2.0 | 0.00 | 0.00 | 0.00 | 74 | 1020.3 |
| 20260507213904 | 34 | 44 | 0.0 | 0.0 | 0.00 | 0.00 | 0.00 | 73 | 1020.3 |
| 20260507212905 | 35 | 44 | 0.0 | 0.0 | 0.00 | 0.00 | 0.00 | 73 | 1020.2 |
| 20260507212404 | 35 | 44 | 0.0 | 0.0 | 0.00 | 0.00 | 0.00 | 72 | 1020.1 |
| 20260507211905 | 36 | 44 | 0.0 | 0.0 | 0.00 | 0.00 | 0.00 | 71 | 1020.1 |
| 20260507210904 | 36 | 44 | 0.0 | 0.0 | 0.00 | 0.00 | 0.00 | 69 | 1020.0 |
| 20260507210404 | 37 | 44 | 0.0 | 0.0 | 0.00 | 0.00 | 0.00 | 68 | 1019.9 |
| 20260507205404 | 38 | 44 | 1.0 | 3.0 | 0.00 | 0.00 | 0.00 | 68 | 1020.0 |
| 20260507204905 | 39 | 44 | 2.0 | 3.0 | 0.00 | 0.00 | 0.00 | 66 | 1020.0 |
| 20260507204404 | 39 | 44 | 1.0 | 3.0 | 0.00 | 0.00 | 0.00 | 65 | 1019.9 |
| 20260507203904 | 39 | 44 | 1.0 | 2.0 | 0.00 | 0.00 | 0.00 | 63 | 1019.8 |
| 20260507203404 | 39 | 44 | 0.0 | 1.0 | 0.00 | 0.00 | 0.00 | 64 | 1019.8 |
| 20260507202903 | 39 | 44 | 1.0 | 1.0 | 0.00 | 0.00 | 0.00 | 63 | 1019.8 |
| 20260507201904 | 40 | 44 | 0.0 | 0.0 | 0.00 | 0.00 | 0.00 | 62 | 1019.7 |
| 20260507201403 | 40 | 44 | 0.0 | 0.0 | 0.00 | 0.00 | 0.00 | 62 | 1019.6 |
| 20260507200903 | 41 | 44 | 0.0 | 1.0 | 0.00 | 0.00 | 0.00 | 62 | 1019.6 |
| 20260507200405 | 41 | 44 | 0.0 | 3.0 | 0.00 | 0.00 | 0.00 | 61 | 1019.6 |
| 20260507195904 | 41 | 44 | 2.0 | 3.0 | 0.00 | 0.00 | 0.00 | 60 | 1019.5 |
| 20260507194904 | 42 | 44 | 0.0 | 0.0 | 0.00 | 0.00 | 0.00 | 59 | 1019.3 |
| 20260507194404 | 43 | 44 | 1.0 | 2.0 | 0.00 | 0.00 | 0.00 | 57 | 1019.3 |
| 20260507193903 | 44 | 44 | 2.0 | 3.0 | 0.00 | 0.00 | 0.00 | 56 | 1019.3 |
| 20260507193404 | 44 | 44 | 2.0 | 3.0 | 0.00 | 0.00 | 0.00 | 53 | 1019.3 |
| 20260507192404 | 45 | 57 | 1.0 | 2.0 | 0.00 | 0.00 | 0.00 | 51 | 1019.2 |
| 20260507191404 | 47 | 49 | 1.0 | 2.0 | 0.00 | 0.00 | 0.00 | 46 | 1019.1 |
| 20260507190403 | 50 | 49 | 1.0 | 2.0 | 0.00 | 0.00 | 0.00 | 42 | 1018.8 |
| 20260507185904 | 51 | 49 | 1.0 | 3.0 | 0.00 | 0.00 | 0.00 | 38 | 1018.7 |
| 20260507185403 | 51 | 49 | 0.0 | 3.0 | 0.00 | 0.00 | 0.00 | 38 | 1018.7 |
| 20260507184403 | 51 | 49 | 1.0 | 1.0 | 0.00 | 0.00 | 0.00 | 38 | 1018.6 |
| 20260507183904 | 52 | 49 | 0.0 | 2.0 | 0.00 | 0.00 | 0.00 | 38 | 1018.6 |
| 20260507183404 | 52 | 49 | 3.0 | 3.0 | 0.00 | 0.00 | 0.00 | 38 | 1018.5 |
| 20260507182903 | 52 | 57 | 2.0 | 3.0 | 0.00 | 0.00 | 0.00 | 37 | 1018.5 |
| 20260507182404 | 52 | 57 | 2.0 | 3.0 | 0.00 | 0.00 | 0.00 | 37 | 1018.5 |
| 20260507181402 | 54 | 48 | 3.0 | 3.0 | 0.00 | 0.00 | 0.00 | 36 | 1018.5 |
| 20260507180903 | 54 | 51 | 2.0 | 3.0 | 0.00 | 0.00 | 0.00 | 34 | 1018.4 |
| 20260507180403 | 55 | 49 | 3.0 | 5.0 | 0.00 | 0.00 | 0.00 | 33 | 1018.4 |
| 20260507175903 | 55 | 44 | 0.0 | 2.0 | 0.00 | 0.00 | 0.00 | 34 | 1018.4 |
| 20260507175403 | 55 | 44 | 1.0 | 5.0 | 0.00 | 0.00 | 0.00 | 32 | 1018.4 |
| 20260507174904 | 56 | 18 | 1.0 | 3.0 | 0.00 | 0.00 | 0.00 | 32 | 1018.5 |
| 20260507174403 | 56 | 5 | 0.0 | 3.0 | 0.00 | 0.00 | 0.00 | 31 | 1018.4 |
| 20260507173903 | 56 | 33 | 1.0 | 2.0 | 0.00 | 0.00 | 0.00 | 31 | 1018.3 |
| 20260507173402 | 56 | 55 | 0.0 | 5.0 | 0.00 | 0.00 | 0.00 | 30 | 1018.3 |
| 20260507172903 | 56 | 47 | 3.0 | 7.0 | 0.00 | 0.00 | 0.00 | 30 | 1018.2 |
| 20260507172402 | 57 | 42 | 1.0 | 3.0 | 0.00 | 0.00 | 0.00 | 29 | 1018.2 |
| 20260507171903 | 57 | 48 | 3.0 | 8.0 | 0.00 | 0.00 | 0.00 | 29 | 1018.3 |
| 20260507171403 | 57 | 18 | 2.0 | 3.0 | 0.00 | 0.00 | 0.00 | 30 | 1018.2 |
| 20260507170903 | 57 | 8 | 1.0 | 3.0 | 0.00 | 0.00 | 0.00 | 28 | 1018.2 |
| 20260507165903 | 57 | 356 | 3.0 | 7.0 | 0.00 | 0.00 | 0.00 | 28 | 1018.1 |
| 20260507164402 | 57 | 349 | 3.0 | 8.0 | 0.00 | 0.00 | 0.00 | 29 | 1018.1 |
| 20260507163903 | 57 | 4 | 3.0 | 8.0 | 0.00 | 0.00 | 0.00 | 29 | 1018.0 |
| 20260507163403 | 57 | 15 | 3.0 | 6.0 | 0.00 | 0.00 | 0.00 | 30 | 1018.0 |
| 20260507162902 | 58 | 11 | 3.0 | 6.0 | 0.00 | 0.00 | 0.00 | 29 | 1018.1 |
| 20260507162402 | 58 | 12 | 3.0 | 8.0 | 0.00 | 0.00 | 0.00 | 29 | 1018.0 |
| 20260507161403 | 58 | 9 | 1.0 | 3.0 | 0.00 | 0.00 | 0.00 | 32 | 1018.0 |
| 20260507160902 | 58 | 355 | 3.0 | 6.0 | 0.00 | 0.00 | 0.00 | 29 | 1018.0 |
| 20260507160403 | 58 | 0 | 2.0 | 3.0 | 0.00 | 0.00 | 0.00 | 32 | 1018.0 |
| 20260507155903 | 57 | 24 | 3.0 | 5.0 | 0.00 | 0.00 | 0.00 | 30 | 1018.0 |
| 20260507154902 | 57 | 34 | 2.0 | 5.0 | 0.00 | 0.00 | 0.00 | 32 | 1017.9 |
| 20260507154403 | 57 | 13 | 3.0 | 5.0 | 0.00 | 0.00 | 0.00 | 30 | 1017.9 |
| 20260507153902 | 57 | 32 | 3.0 | 6.0 | 0.00 | 0.00 | 0.00 | 28 | 1017.9 |
| 20260507153403 | 57 | 45 | 3.0 | 6.0 | 0.00 | 0.00 | 0.00 | 30 | 1017.9 |
| 20260507152903 | 57 | 47 | 3.0 | 6.0 | 0.00 | 0.00 | 0.00 | 30 | 1017.9 |
| 20260507151902 | 58 | 26 | 4.0 | 9.0 | 0.00 | 0.00 | 0.00 | 30 | 1017.9 |
| 20260507151403 | 59 | 34 | 3.0 | 5.0 | 0.00 | 0.00 | 0.00 | 30 | 1017.8 |
| 20260507150902 | 59 | 334 | 5.0 | 9.0 | 0.00 | 0.00 | 0.00 | 29 | 1017.8 |
| 20260507150402 | 58 | 49 | 1.0 | 7.0 | 0.00 | 0.00 | 0.00 | 33 | 1017.8 |
| 20260507145903 | 58 | 341 | 2.0 | 8.0 | 0.00 | 0.00 | 0.00 | 32 | 1017.7 |
| 20260507145403 | 58 | 55 | 2.0 | 5.0 | 0.00 | 0.00 | 0.00 | 30 | 1017.7 |
| 20260507144903 | 58 | 16 | 4.0 | 7.0 | 0.00 | 0.00 | 0.00 | 31 | 1017.7 |
| 20260507144402 | 58 | 19 | 3.0 | 7.0 | 0.00 | 0.00 | 0.00 | 30 | 1017.8 |
| 20260507143903 | 58 | 337 | 3.0 | 8.0 | 0.00 | 0.00 | 0.00 | 32 | 1017.8 |
| 20260507143403 | 58 | 42 | 3.0 | 6.0 | 0.00 | 0.00 | 0.00 | 32 | 1017.7 |
| 20260507142903 | 58 | 13 | 2.0 | 10.0 | 0.00 | 0.00 | 0.00 | 35 | 1017.8 |
| 20260507141903 | 58 | 353 | 4.0 | 7.0 | 0.00 | 0.00 | 0.00 | 32 | 1017.7 |
| 20260507141402 | 58 | 14 | 2.0 | 5.0 | 0.00 | 0.00 | 0.00 | 34 | 1017.7 |
| 20260507140903 | 57 | 342 | 4.0 | 8.0 | 0.00 | 0.00 | 0.00 | 32 | 1017.6 |
| 20260507140403 | 57 | 55 | 3.0 | 6.0 | 0.00 | 0.00 | 0.00 | 31 | 1017.5 |
| 20260507135903 | 57 | 35 | 2.0 | 5.0 | 0.00 | 0.00 | 0.00 | 32 | 1017.6 |
| 20260507135403 | 57 | 82 | 5.0 | 10.0 | 0.00 | 0.00 | 0.00 | 29 | 1017.7 |
| 20260507134403 | 57 | 2 | 1.0 | 3.0 | 0.00 | 0.00 | 0.00 | 28 | 1017.8 |
| 20260507133903 | 57 | 22 | 2.0 | 5.0 | 0.00 | 0.00 | 0.00 | 29 | 1017.8 |
| 20260507132903 | 57 | 38 | 3.0 | 7.0 | 0.00 | 0.00 | 0.00 | 30 | 1017.8 |
| 20260507131903 | 57 | 334 | 5.0 | 9.0 | 0.00 | 0.00 | 0.00 | 30 | 1018.0 |
| 20260507130903 | 57 | 9 | 3.0 | 9.0 | 0.00 | 0.00 | 0.00 | 33 | 1017.8 |
| 20260507130403 | 57 | 24 | 3.0 | 8.0 | 0.00 | 0.00 | 0.00 | 29 | 1017.9 |
| 20260507125903 | 57 | 32 | 3.0 | 6.0 | 0.00 | 0.00 | 0.00 | 30 | 1017.8 |
| 20260507125403 | 57 | 5 | 3.0 | 7.0 | 0.00 | 0.00 | 0.00 | 30 | 1017.9 |
| 20260507124903 | 56 | 300 | 3.0 | 12.0 | 0.00 | 0.00 | 0.00 | 33 | 1018.0 |
| 20260507124402 | 56 | 44 | 2.0 | 7.0 | 0.00 | 0.00 | 0.00 | 35 | 1017.9 |
| 20260507123903 | 56 | 355 | 5.0 | 10.0 | 0.00 | 0.00 | 0.00 | 32 | 1017.9 |
| 20260507123403 | 56 | 10 | 3.0 | 8.0 | 0.00 | 0.00 | 0.00 | 31 | 1017.8 |
| 20260507122904 | 56 | 49 | 5.0 | 13.0 | 0.00 | 0.00 | 0.00 | 31 | 1017.8 |
| 20260507122403 | 57 | 29 | 3.0 | 6.0 | 0.00 | 0.00 | 0.00 | 30 | 1017.9 |
| 20260507121403 | 56 | 14 | 3.0 | 8.0 | 0.00 | 0.00 | 0.00 | 33 | 1017.9 |
| 20260507120902 | 56 | 330 | 3.0 | 8.0 | 0.00 | 0.00 | 0.00 | 34 | 1017.8 |
| 20260507120403 | 57 | 350 | 5.0 | 10.0 | 0.00 | 0.00 | 0.00 | 34 | 1017.8 |
| 20260507115903 | 56 | 329 | 3.0 | 8.0 | 0.00 | 0.00 | 0.00 | 32 | 1017.8 |
| 20260507115402 | 56 | 349 | 2.0 | 10.0 | 0.00 | 0.00 | 0.00 | 35 | 1017.8 |
| 20260507114903 | 55 | 349 | 4.0 | 9.0 | 0.00 | 0.00 | 0.00 | 32 | 1017.8 |
| 20260507114402 | 56 | 44 | 4.0 | 10.0 | 0.00 | 0.00 | 0.00 | 30 | 1017.8 |
| 20260507113903 | 56 | 344 | 5.0 | 9.0 | 0.00 | 0.00 | 0.00 | 33 | 1017.7 |
| 20260507113403 | 55 | 353 | 4.0 | 10.0 | 0.00 | 0.00 | 0.00 | 30 | 1017.7 |
| 20260507112902 | 55 | 26 | 6.0 | 12.0 | 0.00 | 0.00 | 0.00 | 30 | 1017.7 |
| 20260507112403 | 55 | 320 | 4.0 | 12.0 | 0.00 | 0.00 | 0.00 | 33 | 1017.7 |
| 20260507111904 | 55 | 5 | 5.0 | 12.0 | 0.00 | 0.00 | 0.00 | 31 | 1017.7 |
| 20260507111403 | 55 | 0 | 4.0 | 12.0 | 0.00 | 0.00 | 0.00 | 33 | 1017.6 |
| 20260507110903 | 55 | 353 | 3.0 | 12.0 | 0.00 | 0.00 | 0.00 | 35 | 1017.7 |
| 20260507110403 | 56 | 21 | 5.0 | 9.0 | 0.00 | 0.00 | 0.00 | 36 | 1017.6 |
| 20260507105904 | 56 | 353 | 6.0 | 10.0 | 0.00 | 0.00 | 0.00 | 33 | 1017.6 |
| 20260507105403 | 55 | 353 | 4.0 | 10.0 | 0.00 | 0.00 | 0.00 | 37 | 1017.7 |
| 20260507104403 | 55 | 25 | 5.0 | 9.0 | 0.00 | 0.00 | 0.00 | 34 | 1017.5 |
| 20260507103903 | 55 | 26 | 4.0 | 13.0 | 0.00 | 0.00 | 0.00 | 36 | 1017.4 |
| 20260507102403 | 56 | 347 | 3.0 | 8.0 | 0.00 | 0.00 | 0.00 | 33 | 1017.3 |
| 20260507101903 | 56 | 357 | 5.0 | 10.0 | 0.00 | 0.00 | 0.00 | 32 | 1017.0 |
| 20260507101403 | 56 | 333 | 4.0 | 10.0 | 0.00 | 0.00 | 0.00 | 36 | 1016.9 |
| 20260507100404 | 56 | 282 | 2.0 | 10.0 | 0.00 | 0.00 | 0.00 | 41 | 1016.8 |
| 20260507095903 | 56 | 279 | 3.0 | 9.0 | 0.00 | 0.00 | 0.00 | 40 | 1016.7 |
| 20260507095404 | 55 | 314 | 1.0 | 8.0 | 0.00 | 0.00 | 0.00 | 43 | 1016.6 |
| 20260507094903 | 55 | 288 | 3.0 | 9.0 | 0.00 | 0.00 | 0.00 | 42 | 1016.6 |
| 20260507093903 | 55 | 347 | 3.0 | 7.0 | 0.00 | 0.00 | 0.00 | 41 | 1016.7 |
| 20260507093403 | 55 | 340 | 5.0 | 9.0 | 0.00 | 0.00 | 0.00 | 46 | 1016.5 |
| 20260507092903 | 54 | 268 | 6.0 | 10.0 | 0.00 | 0.00 | 0.00 | 41 | 1016.4 |
| 20260507092403 | 55 | 281 | 2.0 | 6.0 | 0.00 | 0.00 | 0.00 | 40 | 1016.3 |
| 20260507091403 | 55 | 288 | 2.0 | 7.0 | 0.00 | 0.00 | 0.00 | 46 | 1016.3 |
| 20260507090404 | 54 | 293 | 2.0 | 5.0 | 0.00 | 0.00 | 0.00 | 46 | 1016.2 |
| 20260507085903 | 53 | 282 | 2.0 | 8.0 | 0.00 | 0.00 | 0.00 | 45 | 1016.2 |
| 20260507085403 | 53 | 274 | 4.0 | 9.0 | 0.00 | 0.00 | 0.00 | 43 | 1016.2 |
| 20260507084403 | 53 | 274 | 5.0 | 8.0 | 0.00 | 0.00 | 0.00 | 47 | 1016.4 |
| 20260507083903 | 53 | 271 | 3.0 | 6.0 | 0.00 | 0.00 | 0.00 | 51 | 1016.3 |
| 20260507083404 | 52 | 305 | 2.0 | 5.0 | 0.00 | 0.00 | 0.00 | 47 | 1016.2 |
| 20260507082903 | 52 | 234 | 6.0 | 8.0 | 0.00 | 0.00 | 0.00 | 47 | 1016.2 |
| 20260507082403 | 52 | 263 | 5.0 | 8.0 | 0.00 | 0.00 | 0.00 | 48 | 1016.2 |
| 20260507081903 | 52 | 267 | 3.0 | 9.0 | 0.00 | 0.00 | 0.00 | 49 | 1016.2 |
| 20260507081403 | 52 | 274 | 5.0 | 8.0 | 0.00 | 0.00 | 0.00 | 48 | 1016.2 |
| 20260507080903 | 52 | 271 | 2.0 | 7.0 | 0.00 | 0.00 | 0.00 | 51 | 1016.1 |
| 20260507080403 | 51 | 311 | 2.0 | 6.0 | 0.00 | 0.00 | 0.00 | 54 | 1016.1 |
| 20260507075403 | 50 | 282 | 2.0 | 7.0 | 0.00 | 0.00 | 0.00 | 55 | 1016.0 |
| 20260507074903 | 50 | 273 | 2.0 | 8.0 | 0.00 | 0.00 | 0.00 | 56 | 1016.0 |
| 20260507074403 | 50 | 266 | 2.0 | 7.0 | 0.00 | 0.00 | 0.00 | 58 | 1015.9 |
| 20260507073903 | 49 | 249 | 3.0 | 8.0 | 0.00 | 0.00 | 0.00 | 57 | 1015.9 |
| 20260507073404 | 49 | 264 | 3.0 | 8.0 | 0.00 | 0.00 | 0.00 | 58 | 1015.9 |
| 20260507072903 | 49 | 230 | 2.0 | 5.0 | 0.00 | 0.00 | 0.00 | 58 | 1015.9 |
| 20260507072403 | 48 | 249 | 3.0 | 6.0 | 0.00 | 0.00 | 0.00 | 61 | 1015.9 |
| 20260507071904 | 48 | 234 | 3.0 | 6.0 | 0.00 | 0.00 | 0.00 | 61 | 1015.9 |
| 20260507071404 | 47 | 264 | 3.0 | 5.0 | 0.00 | 0.00 | 0.00 | 61 | 1015.9 |
| 20260507070904 | 47 | 274 | 2.0 | 3.0 | 0.00 | 0.00 | 0.00 | 63 | 1015.8 |
| 20260507070403 | 47 | 219 | 4.0 | 8.0 | 0.00 | 0.00 | 0.00 | 62 | 1015.8 |
| 20260507065903 | 46 | 246 | 2.0 | 3.0 | 0.00 | 0.00 | 0.00 | 63 | 1015.9 |
| 20260507065403 | 46 | 275 | 3.0 | 6.0 | 0.00 | 0.00 | 0.00 | 64 | 1015.9 |
| 20260507064403 | 45 | 254 | 4.0 | 8.0 | 0.00 | 0.00 | 0.00 | 65 | 1015.8 |
| 20260507063903 | 45 | 246 | 3.0 | 7.0 | 0.00 | 0.00 | 0.00 | 68 | 1015.7 |
| 20260507063404 | 45 | 257 | 5.0 | 9.0 | 0.00 | 0.00 | 0.00 | 69 | 1015.8 |
| 20260507062904 | 45 | 248 | 3.0 | 6.0 | 0.00 | 0.00 | 0.00 | 70 | 1015.7 |
| 20260507061904 | 44 | 241 | 4.0 | 7.0 | 0.00 | 0.00 | 0.00 | 71 | 1015.7 |
| 20260507061403 | 43 | 250 | 5.0 | 7.0 | 0.00 | 0.00 | 0.00 | 72 | 1015.6 |
| 20260507060903 | 43 | 247 | 5.0 | 8.0 | 0.00 | 0.00 | 0.00 | 73 | 1015.6 |
| 20260507060403 | 42 | 239 | 5.0 | 9.0 | 0.00 | 0.00 | 0.00 | 74 | 1015.6 |
| 20260507055903 | 42 | 226 | 5.0 | 7.0 | 0.00 | 0.00 | 0.00 | 74 | 1015.6 |
| 20260507054903 | 41 | 234 | 5.0 | 7.0 | 0.00 | 0.00 | 0.00 | 75 | 1015.3 |
| 20260507054403 | 41 | 240 | 5.0 | 7.0 | 0.00 | 0.00 | 0.00 | 75 | 1015.3 |
| 20260507053903 | 40 | 234 | 5.0 | 8.0 | 0.00 | 0.00 | 0.00 | 76 | 1015.2 |
| 20260507053403 | 40 | 229 | 5.0 | 7.0 | 0.00 | 0.00 | 0.00 | 75 | 1015.1 |
| 20260507052903 | 40 | 228 | 5.0 | 7.0 | 0.00 | 0.00 | 0.00 | 76 | 1015.2 |
| 20260507052404 | 39 | 224 | 5.0 | 6.0 | 0.00 | 0.00 | 0.00 | 76 | 1015.2 |
| 20260507051904 | 39 | 231 | 5.0 | 7.0 | 0.00 | 0.00 | 0.00 | 77 | 1015.1 |
| 20260507050904 | 38 | 216 | 5.0 | 6.0 | 0.00 | 0.00 | 0.00 | 78 | 1015.0 |
| 20260507050403 | 38 | 214 | 3.0 | 5.0 | 0.00 | 0.00 | 0.00 | 79 | 1015.0 |
| 20260507045904 | 37 | 212 | 5.0 | 5.0 | 0.00 | 0.00 | 0.00 | 79 | 1014.9 |
| 20260507044903 | 37 | 202 | 3.0 | 3.0 | 0.00 | 0.00 | 0.00 | 79 | 1014.8 |
| 20260507044403 | 36 | 212 | 5.0 | 6.0 | 0.00 | 0.00 | 0.00 | 79 | 1014.8 |
| 20260507043904 | 36 | 198 | 2.0 | 3.0 | 0.00 | 0.00 | 0.00 | 79 | 1014.8 |
| 20260507042403 | 35 | 194 | 3.0 | 5.0 | 0.00 | 0.00 | 0.00 | 80 | 1014.8 |
| 20260507041903 | 35 | 197 | 3.0 | 5.0 | 0.00 | 0.00 | 0.00 | 80 | 1014.7 |
| 20260507041403 | 35 | 195 | 3.0 | 5.0 | 0.00 | 0.00 | 0.00 | 80 | 1014.7 |
| 20260507040403 | 34 | 200 | 3.0 | 5.0 | 0.00 | 0.00 | 0.00 | 80 | 1014.6 |
| 20260507035903 | 34 | 194 | 3.0 | 5.0 | 0.00 | 0.00 | 0.00 | 81 | 1014.6 |
| 20260507035404 | 34 | 191 | 3.0 | 5.0 | 0.00 | 0.00 | 0.00 | 81 | 1014.4 |
| 20260507034903 | 33 | 194 | 3.0 | 5.0 | 0.00 | 0.00 | 0.00 | 82 | 1014.4 |
| 20260507033403 | 32 | 183 | 1.0 | 3.0 | 0.00 | 0.00 | 0.00 | 82 | 1014.3 |
| 20260507032903 | 32 | 172 | 1.0 | 3.0 | 0.00 | 0.00 | 0.00 | 82 | 1014.2 |
| 20260507032403 | 32 | 175 | 1.0 | 2.0 | 0.00 | 0.00 | 0.00 | 82 | 1014.2 |
| 20260507031903 | 32 | 180 | 0.0 | 2.0 | 0.00 | 0.00 | 0.00 | 81 | 1014.3 |
| 20260507031403 | 32 | 180 | 1.0 | 2.0 | 0.00 | 0.00 | 0.00 | 81 | 1014.2 |
| 20260507030903 | 32 | 180 | 0.0 | 2.0 | 0.00 | 0.00 | 0.00 | 81 | 1014.1 |
| 20260507025905 | 32 | 180 | 0.0 | 0.0 | 0.00 | 0.00 | 0.00 | 80 | 1014.1 |
| 20260507024403 | 33 | 180 | 0.0 | 0.0 | 0.00 | 0.00 | 0.00 | 79 | 1014.0 |
| 20260507023904 | 33 | 180 | 1.0 | 2.0 | 0.00 | 0.00 | 0.00 | 79 | 1014.0 |
| 20260507023403 | 33 | 189 | 0.0 | 1.0 | 0.00 | 0.00 | 0.00 | 78 | 1014.0 |
| 20260507022904 | 34 | 189 | 0.0 | 1.0 | 0.00 | 0.00 | 0.00 | 78 | 1013.9 |
| 20260507022404 | 34 | 189 | 0.0 | 0.0 | 0.00 | 0.00 | 0.00 | 78 | 1013.9 |
| 20260507021904 | 34 | 189 | 0.0 | 1.0 | 0.00 | 0.00 | 0.00 | 78 | 1013.9 |
| 20260507021404 | 34 | 189 | 2.0 | 3.0 | 0.00 | 0.00 | 0.00 | 79 | 1013.9 |
| 20260507020903 | 34 | 204 | 2.0 | 5.0 | 0.00 | 0.00 | 0.00 | 79 | 1013.9 |
| 20260507020403 | 34 | 207 | 3.0 | 3.0 | 0.00 | 0.00 | 0.00 | 79 | 1013.9 |
| 20260507015404 | 34 | 198 | 3.0 | 5.0 | 0.00 | 0.00 | 0.00 | 80 | 1013.9 |
| 20260507014903 | 34 | 196 | 3.0 | 6.0 | 0.00 | 0.00 | 0.00 | 80 | 1013.8 |
| 20260507014403 | 34 | 202 | 4.0 | 5.0 | 0.00 | 0.00 | 0.00 | 82 | 1013.8 |
| 20260507013903 | 33 | 209 | 2.0 | 3.0 | 0.00 | 0.00 | 0.00 | 82 | 1013.7 |
| 20260507013403 | 33 | 218 | 2.0 | 3.0 | 0.00 | 0.00 | 0.00 | 81 | 1013.8 |
| 20260507012903 | 33 | 225 | 2.0 | 3.0 | 0.00 | 0.00 | 0.00 | 80 | 1013.7 |
| 20260507012404 | 33 | 219 | 2.0 | 3.0 | 0.00 | 0.00 | 0.00 | 80 | 1013.6 |
| 20260507011904 | 33 | 219 | 3.0 | 3.0 | 0.00 | 0.00 | 0.00 | 79 | 1013.6 |
| 20260507011403 | 34 | 222 | 2.0 | 3.0 | 0.00 | 0.00 | 0.00 | 78 | 1013.5 |
| 20260507010904 | 34 | 222 | 3.0 | 5.0 | 0.00 | 0.00 | 0.00 | 77 | 1013.5 |
| 20260507010404 | 35 | 221 | 3.0 | 5.0 | 0.00 | 0.00 | 0.00 | 77 | 1013.5 |
| 20260507005904 | 35 | 223 | 3.0 | 3.0 | 0.00 | 0.00 | 0.00 | 76 | 1013.3 |
| 20260507004903 | 35 | 218 | 3.0 | 3.0 | 0.00 | 0.00 | 0.00 | 76 | 1013.2 |
| 20260507004404 | 36 | 211 | 4.0 | 6.0 | 0.00 | 0.00 | 0.00 | 75 | 1013.1 |
| 20260507003903 | 36 | 217 | 3.0 | 3.0 | 0.00 | 0.00 | 0.00 | 75 | 1013.1 |
| 20260507003403 | 36 | 211 | 3.0 | 5.0 | 0.00 | 0.00 | 0.00 | 75 | 1013.2 |
| 20260507002403 | 36 | 201 | 3.0 | 3.0 | 0.00 | 0.00 | 0.00 | 76 | 1013.2 |
| 20260507001903 | 35 | 187 | 2.0 | 3.0 | 0.00 | 0.00 | 0.00 | 77 | 1013.2 |
| 20260507001404 | 34 | 120 | 1.0 | 2.0 | 0.00 | 0.00 | 0.00 | 77 | 1013.2 |
| 20260507000904 | 33 | 96 | 0.0 | 0.0 | 0.00 | 0.00 | 0.00 | 78 | 1013.1 |
| 20260507000405 | 33 | 96 | 0.0 | 1.0 | 0.00 | 0.00 | 0.00 | 77 | 1013.1 |
| 20260506235904 | 33 | 96 | 0.0 | 2.0 | 0.00 | 0.00 | 0.00 | 77 | 1013.0 |
| 20260506235403 | 32 | 96 | 1.0 | 2.0 | 0.00 | 0.00 | 0.00 | 77 | 1013.0 |
| 20260506234904 | 32 | 96 | 2.0 | 3.0 | 0.00 | 0.00 | 0.00 | 76 | 1012.9 |
| 20260506234403 | 32 | 75 | 1.0 | 2.0 | 0.00 | 0.00 | 0.00 | 76 | 1012.9 |
| 20260506233904 | 32 | 72 | 1.0 | 2.0 | 0.00 | 0.00 | 0.00 | 76 | 1012.8 |
| 20260506233403 | 32 | 56 | 0.0 | 0.0 | 0.00 | 0.00 | 0.00 | 76 | 1012.8 |
| 20260506232904 | 32 | 56 | 0.0 | 0.0 | 0.00 | 0.00 | 0.00 | 75 | 1012.8 |
| 20260506232404 | 32 | 56 | 0.0 | 0.0 | 0.00 | 0.00 | 0.00 | 75 | 1012.7 |
| 20260506231903 | 32 | 56 | 0.0 | 0.0 | 0.00 | 0.00 | 0.00 | 75 | 1012.7 |
| 20260506231404 | 32 | 56 | 0.0 | 0.0 | 0.00 | 0.00 | 0.00 | 75 | 1012.6 |
| 20260506230903 | 32 | 56 | 0.0 | 2.0 | 0.00 | 0.00 | 0.00 | 75 | 1012.5 |
| 20260506230403 | 32 | 56 | 0.0 | 2.0 | 0.00 | 0.00 | 0.00 | 75 | 1012.5 |
| 20260506225904 | 32 | 56 | 1.0 | 2.0 | 0.00 | 0.00 | 0.00 | 74 | 1012.6 |
| 20260506225403 | 32 | 56 | 1.0 | 3.0 | 0.00 | 0.00 | 0.00 | 73 | 1012.5 |
| 20260506224404 | 33 | 56 | 2.0 | 3.0 | 0.00 | 0.00 | 0.00 | 73 | 1012.4 |
| 20260506223903 | 33 | 70 | 2.0 | 3.0 | 0.00 | 0.00 | 0.00 | 72 | 1012.4 |
| 20260506223404 | 33 | 37 | 0.0 | 0.0 | 0.00 | 0.00 | 0.00 | 72 | 1012.4 |